createdAt,value
2018-12-07T00:00:42.564Z,16.67
2018-12-07T00:05:46.450Z,20.43
2018-12-07T00:10:50.536Z,22.87
2018-12-07T00:15:54.410Z,17.27
2018-12-07T00:21:00.408Z,18.80
2018-12-07T00:26:07.943Z,14.97
2018-12-07T00:31:11.446Z,16.67
2018-12-07T00:36:17.510Z,16.93
2018-12-07T00:41:20.793Z,19.10
2018-12-07T00:46:29.471Z,20.47
2018-12-07T00:51:32.954Z,20.77
2018-12-07T00:56:36.015Z,19.63
2018-12-07T01:01:40.027Z,19.97
2018-12-07T01:06:43.923Z,19.83
2018-12-07T01:11:47.082Z,24.07
2018-12-07T01:16:53.086Z,19.20
2018-12-07T01:21:59.187Z,16.30
2018-12-07T01:27:05.241Z,13.63
2018-12-07T01:32:08.375Z,13.10
2018-12-07T01:37:11.954Z,20.17
2018-12-07T01:42:16.969Z,19.13
2018-12-07T01:47:20.470Z,17.50
2018-12-07T01:52:23.587Z,22.07
2018-12-07T01:57:27.465Z,19.20
2018-12-07T02:02:30.546Z,18.67
2018-12-07T02:07:34.337Z,18.10
2018-12-07T02:12:42.053Z,21.93
2018-12-07T02:17:46.959Z,22.00
2018-12-07T02:22:51.051Z,28.27
2018-12-07T02:27:58.668Z,20.13
2018-12-07T02:33:02.688Z,13.70
2018-12-07T02:38:11.400Z,15.67
2018-12-07T02:43:15.022Z,15.37
2018-12-07T02:48:22.484Z,14.13
2018-12-07T02:53:25.603Z,17.57
2018-12-07T02:58:29.744Z,25.50
2018-12-07T03:03:38.526Z,19.83
2018-12-07T03:08:44.603Z,19.10
2018-12-07T03:13:49.404Z,20.10
2018-12-07T03:18:55.394Z,18.40
2018-12-07T03:23:58.947Z,14.77
2018-12-07T03:29:01.883Z,20.97
2018-12-07T03:34:07.770Z,21.43
2018-12-07T03:39:12.491Z,17.50
2018-12-07T03:44:18.567Z,22.30
2018-12-07T03:49:21.585Z,19.17
2018-12-07T03:54:25.583Z,20.33
2018-12-07T03:59:28.572Z,18.73
2018-12-07T04:04:32.157Z,19.80
2018-12-07T04:09:41.003Z,19.53
2018-12-07T04:14:44.002Z,18.90
2018-12-07T04:19:47.507Z,20.33
2018-12-07T04:24:50.532Z,16.50
2018-12-07T04:30:04.269Z,18.00
2018-12-07T04:35:08.034Z,22.17
2018-12-07T04:40:11.590Z,20.43
2018-12-07T04:45:15.127Z,18.27
2018-12-07T04:50:19.245Z,16.40
2018-12-07T04:55:22.285Z,21.30
2018-12-07T05:00:27.356Z,16.40
2018-12-07T05:05:30.859Z,17.03
2018-12-07T05:10:34.028Z,13.80
2018-12-07T05:15:37.114Z,16.13
2018-12-07T05:20:40.177Z,17.33
2018-12-07T05:25:44.080Z,20.00
2018-12-07T05:30:50.032Z,14.70
2018-12-07T05:35:54.134Z,16.87
2018-12-07T05:40:58.085Z,16.13
2018-12-07T05:46:01.036Z,17.77
2018-12-07T05:51:09.951Z,16.20
2018-12-07T05:56:13.551Z,15.23
2018-12-07T06:01:17.087Z,15.20
2018-12-07T06:06:20.539Z,19.63
2018-12-07T06:11:24.166Z,19.70
2018-12-07T06:16:28.431Z,15.83
2018-12-07T06:21:37.379Z,12.83
2018-12-07T06:26:46.142Z,15.10
2018-12-07T06:31:49.756Z,16.20
2018-12-07T06:36:55.969Z,15.83
2018-12-07T06:41:59.052Z,14.77
2018-12-07T06:47:03.663Z,12.63
2018-12-07T06:52:11.583Z,14.37
2018-12-07T06:57:16.229Z,13.87
2018-12-07T07:02:21.119Z,12.37
2018-12-07T07:07:24.180Z,7.57
2018-12-07T07:12:33.331Z,11.73
2018-12-07T07:17:36.276Z,10.53
2018-12-07T07:22:39.468Z,12.40
2018-12-07T07:27:42.497Z,10.87
2018-12-07T07:32:49.485Z,10.77
2018-12-07T07:37:53.242Z,10.30
2018-12-07T07:42:56.316Z,11.03
2018-12-07T07:48:00.098Z,9.80
2018-12-07T07:53:03.171Z,10.67
2018-12-07T07:58:06.233Z,8.87
2018-12-07T08:03:09.255Z,9.47
2018-12-07T08:08:16.249Z,9.57
2018-12-07T08:13:19.299Z,6.30
2018-12-07T08:18:22.574Z,8.93
2018-12-07T08:23:26.385Z,9.83
2018-12-07T08:28:29.366Z,6.37
2018-12-07T08:33:32.376Z,14.03
2018-12-07T08:38:35.379Z,6.10
2018-12-07T08:43:39.190Z,6.13
2018-12-07T08:48:42.735Z,6.23
2018-12-07T08:53:48.058Z,4.67
2018-12-07T08:58:56.783Z,5.37
2018-12-07T09:04:02.880Z,4.77
2018-12-07T09:09:07.267Z,4.93
2018-12-07T09:14:12.118Z,3.73
2018-12-07T09:19:17.796Z,4.87
2018-12-07T09:24:21.322Z,3.53
2018-12-07T09:29:25.231Z,3.73
2018-12-07T09:34:30.953Z,6.30
2018-12-07T09:39:35.591Z,6.57
2018-12-07T09:44:40.187Z,3.33
2018-12-07T09:49:43.701Z,3.37
2018-12-07T09:54:46.704Z,4.07
2018-12-07T09:59:50.239Z,2.27
2018-12-07T10:04:53.141Z,2.40
2018-12-07T10:09:55.990Z,1.90
2018-12-07T10:14:59.761Z,3.27
2018-12-07T10:20:04.103Z,3.40
2018-12-07T10:25:10.471Z,3.07
2018-12-07T10:30:13.298Z,2.47
2018-12-07T10:35:17.355Z,2.77
2018-12-07T10:40:20.269Z,2.60
2018-12-07T10:45:24.497Z,2.30
2018-12-07T10:50:28.354Z,2.93
2018-12-07T10:55:32.960Z,2.07
2018-12-07T11:00:47.531Z,3.00
2018-12-07T11:05:59.210Z,2.60
2018-12-07T11:11:09.602Z,3.23
2018-12-07T11:16:18.703Z,2.30
2018-12-07T11:21:30.239Z,1.77
2018-12-07T11:26:41.774Z,2.27
2018-12-07T11:31:51.339Z,2.40
2018-12-07T11:36:55.362Z,2.50
2018-12-07T11:41:59.451Z,2.30
2018-12-07T11:47:06.548Z,5.30
2018-12-07T11:52:09.540Z,2.33
2018-12-07T11:57:12.644Z,2.27
2018-12-07T12:02:26.128Z,1.20
2018-12-07T12:07:30.158Z,4.20
2018-12-07T12:12:36.908Z,1.87
2018-12-07T12:17:39.832Z,2.23
2018-12-07T12:22:46.811Z,2.37
2018-12-07T12:27:49.956Z,2.90
2018-12-07T12:32:53.081Z,2.27
2018-12-07T12:37:55.995Z,3.00
2018-12-07T12:42:58.941Z,2.00
2018-12-07T12:48:02.824Z,3.77
2018-12-07T12:53:11.538Z,1.83
2018-12-07T12:58:15.590Z,2.03
2018-12-07T13:03:24.596Z,1.90
2018-12-07T13:08:33.662Z,2.27
2018-12-07T13:13:39.338Z,2.20
2018-12-07T13:18:45.323Z,2.97
2018-12-07T13:23:51.722Z,2.30
2018-12-07T13:28:55.329Z,2.43
2018-12-07T13:34:00.439Z,2.30
2018-12-07T13:39:07.269Z,1.93
2018-12-07T13:44:11.403Z,2.20
2018-12-07T13:49:14.552Z,2.00
2018-12-07T13:54:17.610Z,2.33
2018-12-07T13:59:21.483Z,5.40
2018-12-07T14:04:25.669Z,2.40
2018-12-07T14:09:30.548Z,2.17
2018-12-07T14:14:37.802Z,2.03
2018-12-07T14:19:41.941Z,2.37
2018-12-07T14:24:45.913Z,1.90
2018-12-07T14:29:49.333Z,2.17
2018-12-07T14:34:56.501Z,2.77
2018-12-07T14:40:00.652Z,2.93
2018-12-07T14:45:04.089Z,3.73
2018-12-07T14:50:10.151Z,1.90
2018-12-07T14:55:17.187Z,1.97
2018-12-07T15:00:23.554Z,2.07
2018-12-07T15:05:29.862Z,2.77
2018-12-07T15:10:36.461Z,2.03
2018-12-07T15:15:45.865Z,1.97
2018-12-07T15:20:54.934Z,2.00
2018-12-07T15:25:58.122Z,1.93
2018-12-07T15:31:04.103Z,3.77
2018-12-07T15:36:09.087Z,2.20
2018-12-07T15:41:13.258Z,2.00
2018-12-07T15:46:22.125Z,1.90
2018-12-07T15:51:29.138Z,2.37
2018-12-07T15:56:35.369Z,3.07
2018-12-07T16:01:40.123Z,4.70
2018-12-07T16:06:43.231Z,9.57
2018-12-07T16:11:50.496Z,3.40
2018-12-07T16:16:57.823Z,7.83
2018-12-07T16:22:02.202Z,7.03
2018-12-07T16:27:05.274Z,5.90
2018-12-07T16:32:09.213Z,2.20
2018-12-07T16:37:12.565Z,2.00
2018-12-07T16:42:17.732Z,3.40
2018-12-07T16:47:23.027Z,7.30
2018-12-07T16:52:32.238Z,2.50
2018-12-07T16:57:35.608Z,2.57
2018-12-07T17:02:39.147Z,5.70
2018-12-07T17:07:46.757Z,3.30
2018-12-07T17:12:50.092Z,4.17
2018-12-07T17:17:54.579Z,8.80
2018-12-07T17:22:58.494Z,7.07
2018-12-07T17:28:02.652Z,7.27
2018-12-07T17:33:05.935Z,5.57
2018-12-07T17:38:14.800Z,5.43
2018-12-07T17:43:21.121Z,4.70
2018-12-07T17:48:27.272Z,4.17
2018-12-07T17:53:36.495Z,3.77
2018-12-07T17:58:40.640Z,5.50
2018-12-07T18:03:44.491Z,5.57
2018-12-07T18:08:49.322Z,10.53
2018-12-07T18:13:52.436Z,3.83
2018-12-07T18:18:57.730Z,10.10
2018-12-07T18:24:01.318Z,4.73
2018-12-07T18:29:04.355Z,4.63
2018-12-07T18:34:12.098Z,4.20
2018-12-07T18:39:15.202Z,3.30
2018-12-07T18:44:18.594Z,2.87
2018-12-07T18:49:22.138Z,2.80
2018-12-07T18:54:26.268Z,3.20
2018-12-07T18:59:29.569Z,4.20
2018-12-07T19:04:32.900Z,2.97
2018-12-07T19:09:38.246Z,2.97
2018-12-07T19:14:42.893Z,2.97
2018-12-07T19:19:46.295Z,3.27
2018-12-07T19:24:49.406Z,5.67
2018-12-07T19:29:53.241Z,3.97
2018-12-07T19:34:56.674Z,2.80
2018-12-07T19:40:06.874Z,3.40
2018-12-07T19:45:10.631Z,4.00
2018-12-07T19:50:14.351Z,2.63
2018-12-07T19:55:22.396Z,4.20
2018-12-07T20:00:28.389Z,4.77
2018-12-07T20:05:31.731Z,2.70
2018-12-07T20:10:36.673Z,4.13
2018-12-07T20:15:44.098Z,7.30
2018-12-07T20:20:48.321Z,3.57
2018-12-07T20:25:51.210Z,2.70
2018-12-07T20:30:55.714Z,2.40
2018-12-07T20:35:58.862Z,2.53
2018-12-07T20:41:04.285Z,2.20
2018-12-07T20:46:10.371Z,3.03
2018-12-07T20:51:15.396Z,1.87
2018-12-07T20:56:18.362Z,1.93
2018-12-07T21:01:21.825Z,1.73
2018-12-07T21:07:41.819Z,4.17
2018-12-07T21:13:30.201Z,1.90
2018-12-07T21:18:33.639Z,1.90
2018-12-07T21:23:36.816Z,2.00
2018-12-07T21:28:40.072Z,1.87
2018-12-07T21:34:58.352Z,1.53
2018-12-07T21:40:12.777Z,1.37
2018-12-07T21:45:16.952Z,2.63
2018-12-07T21:50:20.742Z,2.33
2018-12-07T21:55:27.906Z,1.93
2018-12-07T22:00:31.742Z,2.73
2018-12-07T22:05:35.017Z,1.80
2018-12-07T22:10:43.039Z,2.70
2018-12-07T22:15:48.263Z,1.70
2018-12-07T22:20:53.579Z,1.97
2018-12-07T22:25:57.658Z,1.80
2018-12-07T22:31:01.610Z,1.30
2018-12-07T22:36:05.053Z,1.87
2018-12-07T22:41:08.362Z,1.20
2018-12-07T22:46:11.938Z,0.90
2018-12-07T22:51:17.894Z,1.30
2018-12-07T22:56:23.963Z,0.97
2018-12-07T23:01:32.939Z,0.80
2018-12-07T23:06:36.023Z,0.90
2018-12-07T23:11:39.038Z,1.73
2018-12-07T23:16:43.957Z,0.70
2018-12-07T23:21:47.263Z,1.00
2018-12-07T23:26:54.180Z,1.23
2018-12-07T23:31:58.805Z,0.80
2018-12-07T23:37:01.750Z,1.00
2018-12-07T23:42:05.769Z,2.13
2018-12-07T23:47:11.905Z,0.90
2018-12-07T23:52:17.943Z,0.80
2018-12-07T23:57:21.315Z,0.90
